sensor_id;sensor_type;location;lat;lon;timestamp;P1;durP1;ratioP1;P2;durP2;ratioP2
11541;SDS011;5827;49.482;7.716;2023-03-31T00:01:36;15.63;;;8.37;;
11541;SDS011;5827;49.482;7.716;2023-03-31T00:03:41;10.77;;;7.40;;
11541;SDS011;5827;49.482;7.716;2023-03-31T00:05:43;10.00;;;7.73;;
11541;SDS011;5827;49.482;7.716;2023-03-31T00:07:47;14.47;;;8.13;;
11541;SDS011;5827;49.482;7.716;2023-03-31T00:09:48;12.53;;;8.33;;
11541;SDS011;5827;49.482;7.716;2023-03-31T00:11:55;13.57;;;8.33;;
11541;SDS011;5827;49.482;7.716;2023-03-31T00:13:56;14.70;;;8.07;;
11541;SDS011;5827;49.482;7.716;2023-03-31T00:15:59;11.50;;;7.37;;
11541;SDS011;5827;49.482;7.716;2023-03-31T00:18:03;14.00;;;7.50;;
11541;SDS011;5827;49.482;7.716;2023-03-31T00:20:05;12.30;;;6.73;;
11541;SDS011;5827;49.482;7.716;2023-03-31T00:22:11;12.80;;;6.47;;
11541;SDS011;5827;49.482;7.716;2023-03-31T00:24:12;9.50;;;6.37;;
11541;SDS011;5827;49.482;7.716;2023-03-31T00:26:15;12.03;;;6.43;;
11541;SDS011;5827;49.482;7.716;2023-03-31T00:28:18;10.40;;;5.30;;
11541;SDS011;5827;49.482;7.716;2023-03-31T00:30:19;10.20;;;4.20;;
11541;SDS011;5827;49.482;7.716;2023-03-31T00:32:21;13.30;;;3.70;;
11541;SDS011;5827;49.482;7.716;2023-03-31T00:34:22;9.33;;;3.23;;
11541;SDS011;5827;49.482;7.716;2023-03-31T00:36:24;12.43;;;3.17;;
11541;SDS011;5827;49.482;7.716;2023-03-31T00:38:27;7.87;;;2.67;;
11541;SDS011;5827;49.482;7.716;2023-03-31T00:40:30;10.47;;;2.63;;
11541;SDS011;5827;49.482;7.716;2023-03-31T00:42:31;10.97;;;2.93;;
11541;SDS011;5827;49.482;7.716;2023-03-31T00:44:35;10.67;;;2.60;;
11541;SDS011;5827;49.482;7.716;2023-03-31T00:47:00;11.50;;;3.03;;
11541;SDS011;5827;49.482;7.716;2023-03-31T00:49:07;10.57;;;2.73;;
11541;SDS011;5827;49.482;7.716;2023-03-31T00:51:17;9.63;;;2.73;;
11541;SDS011;5827;49.482;7.716;2023-03-31T00:53:21;12.23;;;3.30;;
11541;SDS011;5827;49.482;7.716;2023-03-31T00:55:27;6.07;;;2.37;;
11541;SDS011;5827;49.482;7.716;2023-03-31T00:57:33;8.77;;;2.40;;
11541;SDS011;5827;49.482;7.716;2023-03-31T00:59:41;12.60;;;3.27;;
11541;SDS011;5827;49.482;7.716;2023-03-31T01:01:46;6.73;;;2.57;;
11541;SDS011;5827;49.482;7.716;2023-03-31T01:03:49;6.27;;;2.60;;
11541;SDS011;5827;49.482;7.716;2023-03-31T01:05:53;7.90;;;2.43;;
11541;SDS011;5827;49.482;7.716;2023-03-31T01:07:58;9.03;;;2.50;;
11541;SDS011;5827;49.482;7.716;2023-03-31T01:10:05;11.23;;;3.03;;
11541;SDS011;5827;49.482;7.716;2023-03-31T01:12:07;12.47;;;2.73;;
11541;SDS011;5827;49.482;7.716;2023-03-31T01:14:10;8.27;;;2.47;;
11541;SDS011;5827;49.482;7.716;2023-03-31T01:16:14;9.20;;;3.23;;
11541;SDS011;5827;49.482;7.716;2023-03-31T01:18:16;10.23;;;2.93;;
11541;SDS011;5827;49.482;7.716;2023-03-31T01:20:23;9.87;;;2.70;;
11541;SDS011;5827;49.482;7.716;2023-03-31T01:27:57;10.73;;;2.70;;
11541;SDS011;5827;49.482;7.716;2023-03-31T01:30:14;7.83;;;2.50;;
11541;SDS011;5827;49.482;7.716;2023-03-31T01:35:09;11.33;;;3.00;;
11541;SDS011;5827;49.482;7.716;2023-03-31T01:40:15;8.90;;;2.30;;
11541;SDS011;5827;49.482;7.716;2023-03-31T01:42:26;10.80;;;3.00;;
11541;SDS011;5827;49.482;7.716;2023-03-31T01:44:32;8.90;;;2.60;;
11541;SDS011;5827;49.482;7.716;2023-03-31T01:46:45;11.50;;;2.67;;
11541;SDS011;5827;49.482;7.716;2023-03-31T01:48:56;9.07;;;3.00;;
11541;SDS011;5827;49.482;7.716;2023-03-31T01:51:05;8.07;;;2.57;;
11541;SDS011;5827;49.482;7.716;2023-03-31T01:53:13;8.10;;;2.53;;
11541;SDS011;5827;49.482;7.716;2023-03-31T01:55:21;10.03;;;2.30;;
11541;SDS011;5827;49.482;7.716;2023-03-31T01:57:26;9.17;;;2.63;;
11541;SDS011;5827;49.482;7.716;2023-03-31T01:59:33;6.33;;;2.57;;
11541;SDS011;5827;49.482;7.716;2023-03-31T02:01:39;9.60;;;2.73;;
11541;SDS011;5827;49.482;7.716;2023-03-31T02:03:47;10.03;;;2.87;;
11541;SDS011;5827;49.482;7.716;2023-03-31T02:05:55;12.13;;;2.70;;
11541;SDS011;5827;49.482;7.716;2023-03-31T02:08:02;12.83;;;3.40;;
11541;SDS011;5827;49.482;7.716;2023-03-31T02:10:07;7.67;;;2.80;;
11541;SDS011;5827;49.482;7.716;2023-03-31T02:12:12;9.43;;;2.23;;
11541;SDS011;5827;49.482;7.716;2023-03-31T02:14:17;11.13;;;3.30;;
11541;SDS011;5827;49.482;7.716;2023-03-31T02:16:22;11.30;;;2.90;;
11541;SDS011;5827;49.482;7.716;2023-03-31T02:18:27;11.00;;;2.80;;
11541;SDS011;5827;49.482;7.716;2023-03-31T02:20:32;8.67;;;2.70;;
11541;SDS011;5827;49.482;7.716;2023-03-31T02:22:34;6.17;;;2.83;;
11541;SDS011;5827;49.482;7.716;2023-03-31T02:24:37;9.70;;;3.27;;
11541;SDS011;5827;49.482;7.716;2023-03-31T02:26:42;13.03;;;2.90;;
11541;SDS011;5827;49.482;7.716;2023-03-31T02:28:49;10.47;;;2.60;;
11541;SDS011;5827;49.482;7.716;2023-03-31T02:30:52;8.30;;;2.50;;
11541;SDS011;5827;49.482;7.716;2023-03-31T02:33:05;12.23;;;2.73;;
11541;SDS011;5827;49.482;7.716;2023-03-31T02:35:08;7.03;;;2.50;;
11541;SDS011;5827;49.482;7.716;2023-03-31T02:37:12;12.07;;;3.10;;
11541;SDS011;5827;49.482;7.716;2023-03-31T02:39:15;9.90;;;2.97;;
11541;SDS011;5827;49.482;7.716;2023-03-31T02:41:21;10.57;;;2.80;;
11541;SDS011;5827;49.482;7.716;2023-03-31T02:43:23;8.03;;;2.67;;
11541;SDS011;5827;49.482;7.716;2023-03-31T02:45:40;10.37;;;3.23;;
11541;SDS011;5827;49.482;7.716;2023-03-31T02:47:43;10.70;;;2.40;;
11541;SDS011;5827;49.482;7.716;2023-03-31T02:49:46;6.43;;;2.50;;
11541;SDS011;5827;49.482;7.716;2023-03-31T02:52:03;8.03;;;2.33;;
11541;SDS011;5827;49.482;7.716;2023-03-31T02:54:19;11.67;;;2.73;;
11541;SDS011;5827;49.482;7.716;2023-03-31T02:56:34;11.03;;;2.67;;
11541;SDS011;5827;49.482;7.716;2023-03-31T02:58:59;6.63;;;2.07;;
11541;SDS011;5827;49.482;7.716;2023-03-31T03:01:21;6.10;;;2.53;;
11541;SDS011;5827;49.482;7.716;2023-03-31T03:03:40;8.70;;;2.20;;
11541;SDS011;5827;49.482;7.716;2023-03-31T03:05:52;6.73;;;2.37;;
11541;SDS011;5827;49.482;7.716;2023-03-31T03:08:05;6.40;;;1.93;;
11541;SDS011;5827;49.482;7.716;2023-03-31T03:10:14;6.13;;;2.30;;
11541;SDS011;5827;49.482;7.716;2023-03-31T03:12:21;5.10;;;2.10;;
11541;SDS011;5827;49.482;7.716;2023-03-31T03:14:30;7.10;;;2.20;;
11541;SDS011;5827;49.482;7.716;2023-03-31T03:16:38;7.23;;;2.03;;
11541;SDS011;5827;49.482;7.716;2023-03-31T03:18:43;5.17;;;2.07;;
11541;SDS011;5827;49.482;7.716;2023-03-31T03:20:45;5.63;;;1.80;;
11541;SDS011;5827;49.482;7.716;2023-03-31T03:22:48;4.10;;;1.70;;
11541;SDS011;5827;49.482;7.716;2023-03-31T03:24:49;6.17;;;2.20;;
11541;SDS011;5827;49.482;7.716;2023-03-31T03:26:51;5.03;;;2.17;;
11541;SDS011;5827;49.482;7.716;2023-03-31T03:28:53;6.87;;;2.00;;
11541;SDS011;5827;49.482;7.716;2023-03-31T03:30:55;8.60;;;2.10;;
11541;SDS011;5827;49.482;7.716;2023-03-31T03:32:58;8.40;;;1.97;;
11541;SDS011;5827;49.482;7.716;2023-03-31T03:35:00;5.07;;;2.13;;
11541;SDS011;5827;49.482;7.716;2023-03-31T03:37:02;5.73;;;1.90;;
11541;SDS011;5827;49.482;7.716;2023-03-31T03:39:04;4.33;;;1.57;;
11541;SDS011;5827;49.482;7.716;2023-03-31T03:41:07;4.83;;;1.90;;
11541;SDS011;5827;49.482;7.716;2023-03-31T03:43:09;3.43;;;1.60;;
11541;SDS011;5827;49.482;7.716;2023-03-31T03:45:10;10.20;;;2.07;;
11541;SDS011;5827;49.482;7.716;2023-03-31T03:47:12;6.00;;;2.10;;
11541;SDS011;5827;49.482;7.716;2023-03-31T03:49:15;6.27;;;2.30;;
11541;SDS011;5827;49.482;7.716;2023-03-31T03:51:16;6.50;;;2.40;;
11541;SDS011;5827;49.482;7.716;2023-03-31T03:53:18;6.10;;;2.00;;
11541;SDS011;5827;49.482;7.716;2023-03-31T03:55:20;7.40;;;2.07;;
11541;SDS011;5827;49.482;7.716;2023-03-31T03:57:22;9.17;;;3.67;;
11541;SDS011;5827;49.482;7.716;2023-03-31T03:59:23;7.13;;;2.73;;
11541;SDS011;5827;49.482;7.716;2023-03-31T04:01:25;9.03;;;2.37;;
11541;SDS011;5827;49.482;7.716;2023-03-31T04:03:26;8.03;;;2.70;;
11541;SDS011;5827;49.482;7.716;2023-03-31T04:05:29;7.20;;;2.20;;
11541;SDS011;5827;49.482;7.716;2023-03-31T04:07:31;8.53;;;2.57;;
11541;SDS011;5827;49.482;7.716;2023-03-31T04:09:32;9.57;;;2.70;;
11541;SDS011;5827;49.482;7.716;2023-03-31T04:11:34;5.90;;;2.63;;
11541;SDS011;5827;49.482;7.716;2023-03-31T04:13:36;6.80;;;3.07;;
11541;SDS011;5827;49.482;7.716;2023-03-31T04:15:37;10.13;;;2.83;;
11541;SDS011;5827;49.482;7.716;2023-03-31T04:17:39;5.83;;;2.43;;
11541;SDS011;5827;49.482;7.716;2023-03-31T04:19:40;7.07;;;2.50;;
11541;SDS011;5827;49.482;7.716;2023-03-31T04:21:43;5.53;;;2.00;;
11541;SDS011;5827;49.482;7.716;2023-03-31T04:23:45;6.30;;;2.30;;
11541;SDS011;5827;49.482;7.716;2023-03-31T04:25:46;6.70;;;2.33;;
11541;SDS011;5827;49.482;7.716;2023-03-31T04:27:49;7.90;;;2.20;;
11541;SDS011;5827;49.482;7.716;2023-03-31T04:29:54;9.77;;;2.60;;
11541;SDS011;5827;49.482;7.716;2023-03-31T04:31:56;7.37;;;2.40;;
11541;SDS011;5827;49.482;7.716;2023-03-31T04:33:58;8.00;;;2.43;;
11541;SDS011;5827;49.482;7.716;2023-03-31T04:36:01;8.67;;;2.57;;
11541;SDS011;5827;49.482;7.716;2023-03-31T04:38:07;7.20;;;2.50;;
11541;SDS011;5827;49.482;7.716;2023-03-31T04:40:09;7.63;;;2.40;;
11541;SDS011;5827;49.482;7.716;2023-03-31T04:42:11;9.83;;;3.10;;
11541;SDS011;5827;49.482;7.716;2023-03-31T04:44:13;9.93;;;3.00;;
11541;SDS011;5827;49.482;7.716;2023-03-31T04:46:15;8.33;;;2.87;;
11541;SDS011;5827;49.482;7.716;2023-03-31T04:48:17;9.70;;;3.07;;
11541;SDS011;5827;49.482;7.716;2023-03-31T04:50:18;10.33;;;3.20;;
11541;SDS011;5827;49.482;7.716;2023-03-31T04:52:20;6.93;;;3.40;;
11541;SDS011;5827;49.482;7.716;2023-03-31T04:54:23;8.60;;;4.83;;
11541;SDS011;5827;49.482;7.716;2023-03-31T04:56:24;11.60;;;7.07;;
11541;SDS011;5827;49.482;7.716;2023-03-31T04:58:26;12.40;;;6.53;;
11541;SDS011;5827;49.482;7.716;2023-03-31T05:00:28;17.90;;;8.60;;
11541;SDS011;5827;49.482;7.716;2023-03-31T05:02:29;11.97;;;8.30;;
11541;SDS011;5827;49.482;7.716;2023-03-31T05:04:31;16.40;;;9.73;;
11541;SDS011;5827;49.482;7.716;2023-03-31T05:06:32;16.20;;;10.77;;
11541;SDS011;5827;49.482;7.716;2023-03-31T05:08:35;16.37;;;12.27;;
11541;SDS011;5827;49.482;7.716;2023-03-31T05:10:37;18.73;;;12.23;;
11541;SDS011;5827;49.482;7.716;2023-03-31T05:12:39;14.03;;;6.37;;
11541;SDS011;5827;49.482;7.716;2023-03-31T05:14:40;8.10;;;4.00;;
11541;SDS011;5827;49.482;7.716;2023-03-31T05:16:42;8.90;;;3.40;;
11541;SDS011;5827;49.482;7.716;2023-03-31T05:18:43;11.80;;;6.40;;
11541;SDS011;5827;49.482;7.716;2023-03-31T05:20:45;7.33;;;3.60;;
11541;SDS011;5827;49.482;7.716;2023-03-31T05:22:46;11.00;;;3.90;;
11541;SDS011;5827;49.482;7.716;2023-03-31T05:24:48;11.17;;;4.40;;
11541;SDS011;5827;49.482;7.716;2023-03-31T05:26:51;9.83;;;4.37;;
11541;SDS011;5827;49.482;7.716;2023-03-31T05:28:52;8.00;;;3.77;;
11541;SDS011;5827;49.482;7.716;2023-03-31T05:30:54;8.93;;;3.80;;
11541;SDS011;5827;49.482;7.716;2023-03-31T05:32:59;8.47;;;4.37;;
11541;SDS011;5827;49.482;7.716;2023-03-31T05:35:01;10.43;;;4.20;;
11541;SDS011;5827;49.482;7.716;2023-03-31T05:37:02;7.90;;;4.33;;
11541;SDS011;5827;49.482;7.716;2023-03-31T05:39:04;9.57;;;4.10;;
11541;SDS011;5827;49.482;7.716;2023-03-31T05:41:07;10.37;;;4.80;;
11541;SDS011;5827;49.482;7.716;2023-03-31T05:43:11;8.70;;;4.73;;
11541;SDS011;5827;49.482;7.716;2023-03-31T05:45:12;9.50;;;4.43;;
11541;SDS011;5827;49.482;7.716;2023-03-31T05:47:14;10.27;;;4.70;;
11541;SDS011;5827;49.482;7.716;2023-03-31T05:49:16;9.90;;;4.47;;
11541;SDS011;5827;49.482;7.716;2023-03-31T05:51:18;8.47;;;4.60;;
11541;SDS011;5827;49.482;7.716;2023-03-31T05:53:19;9.07;;;4.57;;
11541;SDS011;5827;49.482;7.716;2023-03-31T05:55:21;9.53;;;4.57;;
11541;SDS011;5827;49.482;7.716;2023-03-31T05:57:22;10.23;;;4.60;;
11541;SDS011;5827;49.482;7.716;2023-03-31T05:59:25;11.40;;;5.10;;
11541;SDS011;5827;49.482;7.716;2023-03-31T06:01:27;11.57;;;5.10;;
11541;SDS011;5827;49.482;7.716;2023-03-31T06:03:29;11.13;;;4.40;;
11541;SDS011;5827;49.482;7.716;2023-03-31T06:05:30;12.23;;;5.17;;
11541;SDS011;5827;49.482;7.716;2023-03-31T06:07:32;9.17;;;5.10;;
11541;SDS011;5827;49.482;7.716;2023-03-31T06:09:33;6.97;;;4.83;;
11541;SDS011;5827;49.482;7.716;2023-03-31T06:11:35;12.07;;;5.37;;
11541;SDS011;5827;49.482;7.716;2023-03-31T06:13:37;11.30;;;4.73;;
11541;SDS011;5827;49.482;7.716;2023-03-31T06:15:41;10.60;;;5.40;;
11541;SDS011;5827;49.482;7.716;2023-03-31T06:17:42;12.30;;;5.17;;
11541;SDS011;5827;49.482;7.716;2023-03-31T06:19:44;11.57;;;5.20;;
11541;SDS011;5827;49.482;7.716;2023-03-31T06:21:45;9.47;;;4.77;;
11541;SDS011;5827;49.482;7.716;2023-03-31T06:23:47;12.97;;;4.90;;
11541;SDS011;5827;49.482;7.716;2023-03-31T06:25:49;8.17;;;4.63;;
11541;SDS011;5827;49.482;7.716;2023-03-31T06:27:50;11.93;;;5.00;;
11541;SDS011;5827;49.482;7.716;2023-03-31T06:29:52;11.33;;;4.90;;
11541;SDS011;5827;49.482;7.716;2023-03-31T06:31:55;13.63;;;5.50;;
11541;SDS011;5827;49.482;7.716;2023-03-31T06:33:57;10.73;;;5.00;;
11541;SDS011;5827;49.482;7.716;2023-03-31T06:35:59;10.10;;;5.50;;
11541;SDS011;5827;49.482;7.716;2023-03-31T06:38:03;8.70;;;5.07;;
11541;SDS011;5827;49.482;7.716;2023-03-31T06:40:05;10.87;;;5.67;;
11541;SDS011;5827;49.482;7.716;2023-03-31T06:42:07;8.90;;;5.00;;
11541;SDS011;5827;49.482;7.716;2023-03-31T06:44:09;9.90;;;5.17;;
11541;SDS011;5827;49.482;7.716;2023-03-31T06:46:11;13.10;;;5.33;;
11541;SDS011;5827;49.482;7.716;2023-03-31T06:48:14;8.83;;;5.63;;
11541;SDS011;5827;49.482;7.716;2023-03-31T06:50:16;10.20;;;5.60;;
11541;SDS011;5827;49.482;7.716;2023-03-31T06:52:17;11.60;;;6.10;;
11541;SDS011;5827;49.482;7.716;2023-03-31T06:54:19;7.83;;;4.77;;
11541;SDS011;5827;49.482;7.716;2023-03-31T06:56:20;11.43;;;5.00;;
11541;SDS011;5827;49.482;7.716;2023-03-31T06:58:22;10.83;;;5.00;;
11541;SDS011;5827;49.482;7.716;2023-03-31T07:00:24;10.33;;;5.20;;
11541;SDS011;5827;49.482;7.716;2023-03-31T07:02:26;12.40;;;5.17;;
11541;SDS011;5827;49.482;7.716;2023-03-31T07:04:28;9.97;;;4.90;;
11541;SDS011;5827;49.482;7.716;2023-03-31T07:06:30;10.57;;;5.20;;
11541;SDS011;5827;49.482;7.716;2023-03-31T07:08:32;8.60;;;4.97;;
11541;SDS011;5827;49.482;7.716;2023-03-31T07:10:34;9.83;;;4.97;;
11541;SDS011;5827;49.482;7.716;2023-03-31T07:12:35;12.47;;;4.63;;
11541;SDS011;5827;49.482;7.716;2023-03-31T07:14:37;10.23;;;4.97;;
11541;SDS011;5827;49.482;7.716;2023-03-31T07:16:38;11.23;;;5.13;;
11541;SDS011;5827;49.482;7.716;2023-03-31T07:18:40;11.53;;;4.77;;
11541;SDS011;5827;49.482;7.716;2023-03-31T07:20:43;11.60;;;4.70;;
11541;SDS011;5827;49.482;7.716;2023-03-31T07:22:46;8.13;;;5.00;;
11541;SDS011;5827;49.482;7.716;2023-03-31T07:24:48;10.43;;;5.10;;
11541;SDS011;5827;49.482;7.716;2023-03-31T07:26:50;14.07;;;5.67;;
11541;SDS011;5827;49.482;7.716;2023-03-31T07:28:51;11.60;;;4.73;;
11541;SDS011;5827;49.482;7.716;2023-03-31T07:30:55;7.80;;;4.43;;
11541;SDS011;5827;49.482;7.716;2023-03-31T07:32:57;11.70;;;4.97;;
11541;SDS011;5827;49.482;7.716;2023-03-31T07:34:58;10.37;;;4.63;;
11541;SDS011;5827;49.482;7.716;2023-03-31T07:37:01;11.73;;;4.90;;
11541;SDS011;5827;49.482;7.716;2023-03-31T07:39:03;7.50;;;4.47;;
11541;SDS011;5827;49.482;7.716;2023-03-31T07:41:08;11.67;;;5.13;;
11541;SDS011;5827;49.482;7.716;2023-03-31T07:43:10;9.47;;;4.17;;
11541;SDS011;5827;49.482;7.716;2023-03-31T07:45:12;6.17;;;3.63;;
11541;SDS011;5827;49.482;7.716;2023-03-31T07:47:13;6.00;;;3.73;;
11541;SDS011;5827;49.482;7.716;2023-03-31T07:49:15;8.60;;;4.20;;
11541;SDS011;5827;49.482;7.716;2023-03-31T07:51:17;5.40;;;3.50;;
11541;SDS011;5827;49.482;7.716;2023-03-31T07:53:21;5.80;;;3.40;;
11541;SDS011;5827;49.482;7.716;2023-03-31T07:55:23;9.30;;;3.30;;
11541;SDS011;5827;49.482;7.716;2023-03-31T07:57:25;8.93;;;3.30;;
11541;SDS011;5827;49.482;7.716;2023-03-31T07:59:27;5.80;;;2.70;;
11541;SDS011;5827;49.482;7.716;2023-03-31T08:01:29;7.17;;;3.13;;
11541;SDS011;5827;49.482;7.716;2023-03-31T08:03:31;8.63;;;3.70;;
11541;SDS011;5827;49.482;7.716;2023-03-31T08:05:33;6.20;;;3.43;;
11541;SDS011;5827;49.482;7.716;2023-03-31T08:07:35;6.87;;;3.50;;
11541;SDS011;5827;49.482;7.716;2023-03-31T08:09:39;6.83;;;3.57;;
11541;SDS011;5827;49.482;7.716;2023-03-31T08:11:41;5.27;;;3.60;;
11541;SDS011;5827;49.482;7.716;2023-03-31T08:13:43;7.47;;;3.77;;
11541;SDS011;5827;49.482;7.716;2023-03-31T08:15:44;9.57;;;3.63;;
11541;SDS011;5827;49.482;7.716;2023-03-31T08:17:46;5.97;;;3.97;;
11541;SDS011;5827;49.482;7.716;2023-03-31T08:19:47;8.60;;;3.53;;
11541;SDS011;5827;49.482;7.716;2023-03-31T08:21:50;9.27;;;4.00;;
11541;SDS011;5827;49.482;7.716;2023-03-31T08:23:52;11.73;;;4.20;;
11541;SDS011;5827;49.482;7.716;2023-03-31T08:26:01;13.13;;;4.30;;
11541;SDS011;5827;49.482;7.716;2023-03-31T08:28:07;11.27;;;4.37;;
11541;SDS011;5827;49.482;7.716;2023-03-31T08:30:10;8.90;;;3.80;;
11541;SDS011;5827;49.482;7.716;2023-03-31T08:32:12;11.13;;;4.47;;
11541;SDS011;5827;49.482;7.716;2023-03-31T08:34:13;13.70;;;5.00;;
11541;SDS011;5827;49.482;7.716;2023-03-31T08:36:15;15.50;;;4.60;;
11541;SDS011;5827;49.482;7.716;2023-03-31T08:38:16;8.10;;;4.43;;
11541;SDS011;5827;49.482;7.716;2023-03-31T08:40:19;10.60;;;4.30;;
11541;SDS011;5827;49.482;7.716;2023-03-31T08:42:27;12.70;;;4.50;;
11541;SDS011;5827;49.482;7.716;2023-03-31T08:44:37;10.27;;;4.23;;
11541;SDS011;5827;49.482;7.716;2023-03-31T08:46:43;9.83;;;4.10;;
11541;SDS011;5827;49.482;7.716;2023-03-31T08:48:45;11.60;;;4.50;;
11541;SDS011;5827;49.482;7.716;2023-03-31T08:50:51;10.37;;;3.40;;
11541;SDS011;5827;49.482;7.716;2023-03-31T08:53:00;10.63;;;3.40;;
11541;SDS011;5827;49.482;7.716;2023-03-31T08:55:06;9.67;;;3.43;;
11541;SDS011;5827;49.482;7.716;2023-03-31T08:57:14;8.47;;;2.87;;
11541;SDS011;5827;49.482;7.716;2023-03-31T08:59:23;9.60;;;2.87;;
11541;SDS011;5827;49.482;7.716;2023-03-31T09:01:30;11.73;;;3.07;;
11541;SDS011;5827;49.482;7.716;2023-03-31T09:03:41;7.00;;;2.97;;
11541;SDS011;5827;49.482;7.716;2023-03-31T09:05:54;9.17;;;2.93;;
11541;SDS011;5827;49.482;7.716;2023-03-31T09:08:03;7.30;;;2.43;;
11541;SDS011;5827;49.482;7.716;2023-03-31T09:10:19;9.43;;;2.67;;
11541;SDS011;5827;49.482;7.716;2023-03-31T09:12:38;9.70;;;2.63;;
11541;SDS011;5827;49.482;7.716;2023-03-31T09:14:48;6.83;;;2.60;;
11541;SDS011;5827;49.482;7.716;2023-03-31T09:17:00;8.30;;;2.93;;
11541;SDS011;5827;49.482;7.716;2023-03-31T09:19:12;5.93;;;2.83;;
11541;SDS011;5827;49.482;7.716;2023-03-31T09:21:20;7.43;;;2.67;;
11541;SDS011;5827;49.482;7.716;2023-03-31T09:23:26;5.57;;;2.30;;
11541;SDS011;5827;49.482;7.716;2023-03-31T09:25:33;8.00;;;2.50;;
11541;SDS011;5827;49.482;7.716;2023-03-31T09:27:38;5.40;;;2.33;;
11541;SDS011;5827;49.482;7.716;2023-03-31T09:29:43;6.93;;;2.30;;
11541;SDS011;5827;49.482;7.716;2023-03-31T09:31:50;7.43;;;2.30;;
11541;SDS011;5827;49.482;7.716;2023-03-31T09:33:54;7.27;;;2.20;;
11541;SDS011;5827;49.482;7.716;2023-03-31T09:36:00;4.87;;;2.10;;
11541;SDS011;5827;49.482;7.716;2023-03-31T09:38:02;9.53;;;2.57;;
11541;SDS011;5827;49.482;7.716;2023-03-31T09:40:04;4.83;;;2.13;;
11541;SDS011;5827;49.482;7.716;2023-03-31T09:42:08;6.03;;;2.50;;
11541;SDS011;5827;49.482;7.716;2023-03-31T09:44:16;9.57;;;3.30;;
11541;SDS011;5827;49.482;7.716;2023-03-31T09:46:25;7.77;;;3.07;;
11541;SDS011;5827;49.482;7.716;2023-03-31T09:48:33;12.90;;;3.37;;
11541;SDS011;5827;49.482;7.716;2023-03-31T09:50:37;10.53;;;3.30;;
11541;SDS011;5827;49.482;7.716;2023-03-31T09:52:45;9.80;;;3.27;;
11541;SDS011;5827;49.482;7.716;2023-03-31T09:54:50;10.17;;;3.20;;
11541;SDS011;5827;49.482;7.716;2023-03-31T09:56:54;12.53;;;4.20;;
11541;SDS011;5827;49.482;7.716;2023-03-31T09:58:56;10.70;;;3.63;;
11541;SDS011;5827;49.482;7.716;2023-03-31T10:01:02;11.23;;;4.17;;
11541;SDS011;5827;49.482;7.716;2023-03-31T10:03:09;12.97;;;3.97;;
11541;SDS011;5827;49.482;7.716;2023-03-31T10:05:26;13.83;;;4.03;;
11541;SDS011;5827;49.482;7.716;2023-03-31T10:07:30;11.17;;;3.53;;
11541;SDS011;5827;49.482;7.716;2023-03-31T10:09:32;9.53;;;3.63;;
11541;SDS011;5827;49.482;7.716;2023-03-31T10:11:34;16.30;;;3.60;;
11541;SDS011;5827;49.482;7.716;2023-03-31T10:13:40;13.27;;;3.80;;
11541;SDS011;5827;49.482;7.716;2023-03-31T10:15:45;14.67;;;3.40;;
11541;SDS011;5827;49.482;7.716;2023-03-31T10:17:47;15.03;;;4.50;;
11541;SDS011;5827;49.482;7.716;2023-03-31T10:19:49;11.47;;;3.90;;
11541;SDS011;5827;49.482;7.716;2023-03-31T10:21:57;14.37;;;4.03;;
11541;SDS011;5827;49.482;7.716;2023-03-31T10:24:00;14.60;;;4.17;;
11541;SDS011;5827;49.482;7.716;2023-03-31T10:26:10;14.43;;;3.93;;
11541;SDS011;5827;49.482;7.716;2023-03-31T10:28:16;13.40;;;3.47;;
11541;SDS011;5827;49.482;7.716;2023-03-31T10:30:20;13.80;;;3.50;;
11541;SDS011;5827;49.482;7.716;2023-03-31T10:32:24;14.53;;;3.97;;
11541;SDS011;5827;49.482;7.716;2023-03-31T10:34:27;16.33;;;4.10;;
11541;SDS011;5827;49.482;7.716;2023-03-31T10:36:31;13.37;;;3.80;;
11541;SDS011;5827;49.482;7.716;2023-03-31T10:38:36;11.70;;;3.53;;
11541;SDS011;5827;49.482;7.716;2023-03-31T10:40:42;9.20;;;2.83;;
11541;SDS011;5827;49.482;7.716;2023-03-31T10:42:57;13.17;;;3.47;;
11541;SDS011;5827;49.482;7.716;2023-03-31T10:45:11;12.67;;;3.47;;
11541;SDS011;5827;49.482;7.716;2023-03-31T10:47:23;8.57;;;2.70;;
11541;SDS011;5827;49.482;7.716;2023-03-31T10:49:25;13.33;;;3.10;;
11541;SDS011;5827;49.482;7.716;2023-03-31T10:51:27;11.10;;;3.17;;
11541;SDS011;5827;49.482;7.716;2023-03-31T10:53:30;11.13;;;2.80;;
11541;SDS011;5827;49.482;7.716;2023-03-31T10:55:44;11.03;;;3.13;;
11541;SDS011;5827;49.482;7.716;2023-03-31T10:57:52;8.00;;;2.70;;
11541;SDS011;5827;49.482;7.716;2023-03-31T11:00:08;9.37;;;3.00;;
11541;SDS011;5827;49.482;7.716;2023-03-31T11:02:26;10.03;;;2.73;;
11541;SDS011;5827;49.482;7.716;2023-03-31T11:04:51;10.17;;;2.60;;
11541;SDS011;5827;49.482;7.716;2023-03-31T11:07:02;8.33;;;2.70;;
11541;SDS011;5827;49.482;7.716;2023-03-31T11:09:15;9.40;;;2.67;;
11541;SDS011;5827;49.482;7.716;2023-03-31T11:11:33;9.17;;;2.77;;
11541;SDS011;5827;49.482;7.716;2023-03-31T11:13:51;6.87;;;2.50;;
11541;SDS011;5827;49.482;7.716;2023-03-31T11:16:00;9.27;;;2.50;;
11541;SDS011;5827;49.482;7.716;2023-03-31T11:18:15;9.30;;;2.70;;
11541;SDS011;5827;49.482;7.716;2023-03-31T11:20:37;7.77;;;2.40;;
11541;SDS011;5827;49.482;7.716;2023-03-31T11:22:49;7.90;;;2.30;;
11541;SDS011;5827;49.482;7.716;2023-03-31T11:27:30;10.23;;;3.00;;
11541;SDS011;5827;49.482;7.716;2023-03-31T11:29:42;9.67;;;2.40;;
11541;SDS011;5827;49.482;7.716;2023-03-31T11:31:53;8.03;;;2.90;;
11541;SDS011;5827;49.482;7.716;2023-03-31T11:36:36;8.47;;;3.00;;
11541;SDS011;5827;49.482;7.716;2023-03-31T11:38:54;6.77;;;2.13;;
11541;SDS011;5827;49.482;7.716;2023-03-31T11:41:06;5.67;;;2.03;;
11541;SDS011;5827;49.482;7.716;2023-03-31T11:43:12;6.50;;;2.20;;
11541;SDS011;5827;49.482;7.716;2023-03-31T11:45:23;7.60;;;2.20;;
11541;SDS011;5827;49.482;7.716;2023-03-31T11:47:29;7.83;;;2.23;;
11541;SDS011;5827;49.482;7.716;2023-03-31T11:49:36;5.90;;;2.50;;
11541;SDS011;5827;49.482;7.716;2023-03-31T11:51:41;5.07;;;1.80;;
11541;SDS011;5827;49.482;7.716;2023-03-31T11:53:47;6.17;;;2.20;;
11541;SDS011;5827;49.482;7.716;2023-03-31T11:55:52;6.37;;;2.03;;
11541;SDS011;5827;49.482;7.716;2023-03-31T11:58:00;4.77;;;1.87;;
11541;SDS011;5827;49.482;7.716;2023-03-31T12:00:04;5.03;;;2.10;;
11541;SDS011;5827;49.482;7.716;2023-03-31T12:02:13;4.87;;;1.73;;
11541;SDS011;5827;49.482;7.716;2023-03-31T12:04:22;5.23;;;1.77;;
11541;SDS011;5827;49.482;7.716;2023-03-31T12:06:33;5.73;;;1.93;;
11541;SDS011;5827;49.482;7.716;2023-03-31T12:08:40;5.00;;;1.50;;
11541;SDS011;5827;49.482;7.716;2023-03-31T12:10:49;4.10;;;1.80;;
11541;SDS011;5827;49.482;7.716;2023-03-31T12:12:54;4.53;;;1.70;;
11541;SDS011;5827;49.482;7.716;2023-03-31T12:15:04;4.10;;;1.73;;
11541;SDS011;5827;49.482;7.716;2023-03-31T12:17:13;3.87;;;1.70;;
11541;SDS011;5827;49.482;7.716;2023-03-31T12:19:19;3.70;;;2.00;;
11541;SDS011;5827;49.482;7.716;2023-03-31T12:21:24;4.80;;;1.70;;
11541;SDS011;5827;49.482;7.716;2023-03-31T12:23:29;5.00;;;1.70;;
11541;SDS011;5827;49.482;7.716;2023-03-31T12:25:39;4.87;;;1.53;;
11541;SDS011;5827;49.482;7.716;2023-03-31T12:27:47;5.43;;;1.70;;
11541;SDS011;5827;49.482;7.716;2023-03-31T12:29:52;4.77;;;1.40;;
11541;SDS011;5827;49.482;7.716;2023-03-31T12:31:59;3.73;;;1.77;;
11541;SDS011;5827;49.482;7.716;2023-03-31T12:34:04;5.47;;;1.60;;
11541;SDS011;5827;49.482;7.716;2023-03-31T12:36:13;4.70;;;2.07;;
11541;SDS011;5827;49.482;7.716;2023-03-31T12:38:27;4.70;;;1.70;;
11541;SDS011;5827;49.482;7.716;2023-03-31T12:40:42;3.43;;;2.00;;
11541;SDS011;5827;49.482;7.716;2023-03-31T12:42:54;5.67;;;2.10;;
11541;SDS011;5827;49.482;7.716;2023-03-31T12:45:11;5.60;;;1.70;;
11541;SDS011;5827;49.482;7.716;2023-03-31T12:47:29;4.53;;;1.60;;
11541;SDS011;5827;49.482;7.716;2023-03-31T12:49:46;4.57;;;1.70;;
11541;SDS011;5827;49.482;7.716;2023-03-31T12:51:58;6.60;;;1.80;;
11541;SDS011;5827;49.482;7.716;2023-03-31T12:54:08;5.27;;;1.70;;
11541;SDS011;5827;49.482;7.716;2023-03-31T12:56:22;5.63;;;1.80;;
11541;SDS011;5827;49.482;7.716;2023-03-31T12:58:35;5.77;;;1.93;;